• Join FlightAware (Why Join?)
  • Login
  • US Flag 
10:32AM EDT


 

Airport Tracker/Info


-or-


 

Live Flight TrackerFlight Track Log ✈ BNA785 ✈ 05-Jul-2013 ✈ KHMZ - KBCT

Flight Track Log - Related Links

Times and Time Zones

All times are in EDT time to prevent confusion due to time zone crossing. See the BNA785 flight status page for this flight to view local times or setup timezone preferences in your user account.

Time Position Orientation Groundspeed Altitude Reporting Facility
EDT Latitude Longitude Course Direction KTS MPH feet Rate Location/Type
12:31PM 40.0250 -78.4956 193° South 209 241 4,600  Level Cleveland Center
12:33PM 39.9092 -78.5317 193° South 209 241 11,200 3,000 Climbing Washington Center
12:34PM 39.8458 -78.5669 203° Southwest 224 258 13,800 2,580 Climbing Washington Center
12:35PM 39.7906 -78.6078 210° Southwest 237 273 16,500 2,520 Climbing Washington Center
12:36PM 39.7314 -78.6458 206° Southwest 242 278 18,800 1,860 Climbing Washington Center
12:37PM 39.6697 -78.6864 207° Southwest 247 284 20,200 1,500 Climbing Washington Center
12:38PM 39.6042 -78.7319 208° Southwest 257 296 21,900 1,380 Climbing Washington Center
12:39PM 39.5319 -78.7828 208° Southwest 276 318 23,100 1,020 Climbing Washington Center
12:40PM 39.4794 -78.8692 232° Southwest 295 339 24,000 1,080 Climbing Washington Center
12:41PM 39.4269 -78.9636 234° Southwest 308 354 25,300 1,260 Climbing Washington Center
12:42PM 39.3764 -79.0550 234° Southwest 318 366 26,600 1,140 Climbing Washington Center
12:43PM 39.3300 -79.1414 235° Southwest 323 372 27,700 1,020 Climbing Washington Center
12:44PM 39.2772 -79.2328 233° Southwest 323 372 28,600 1,140 Climbing Washington Center
12:45PM 39.2286 -79.3267 236° Southwest 323 372 30,000 1,260 Climbing Washington Center
12:46PM 39.1697 -79.4094 227° Southwest 323 372 31,200 1,140 Climbing Washington Center
12:47PM 39.0853 -79.4397 196° South 314 361 32,400 1,020 Climbing Washington Center
12:48PM 38.9925 -79.4750 196° South 314 361 33,300 1,260 Climbing Washington Center
12:49PM 38.9108 -79.4839 185° South 319 367 35,000 1,500 Climbing Washington Center
12:50PM 38.8308 -79.5117 195° South 314 361 36,300 1,020 Climbing Washington Center
12:51PM 38.7422 -79.5442 196° South 309 356 37,100 900 Climbing Washington Center
12:52PM 38.6661 -79.5722 196° South 309 356 38,200 900 Climbing Washington Center
12:53PM 38.5839 -79.5969 193° South 304 350 39,000 840 Climbing Washington Center
12:54PM 38.5017 -79.6244 195° South 304 350 39,900 840 Climbing Washington Center
12:55PM 38.4172 -79.6542 195° South 304 350 40,700 720 Climbing Washington Center
12:56PM 38.3247 -79.6808 193° South 304 350 41,400 540 Climbing Washington Center
12:57PM 38.2381 -79.7106 195° South 309 356 41,900 540 Climbing Washington Center
12:58PM 38.1517 -79.7400 195° South 319 367 42,500 600 Climbing Washington Center
12:59PM 38.0736 -79.7647 194° South 319 367 43,200 720 Climbing Washington Center
01:00PM 37.9850 -79.7942 195° South 319 367 44,000 660 Climbing Washington Center
01:01PM 37.8986 -79.8208 194° South 324 373 44,600 480 Climbing Washington Center
01:02PM 37.8056 -79.8525 195° South 324 373 45,000 180 Climbing Washington Center
01:03PM 37.7169 -79.8817 195° South 324 373 45,000  Level Washington Center
01:04PM 37.6242 -79.9103 194° South 331 381 45,000  Level Washington Center
01:05PM 37.5375 -79.9422 196° South 344 396 45,000  Level Washington Center
01:06PM 37.4425 -79.9681 192° South 350 403 45,000  Level Washington Center
01:07PM 37.3417 -79.9883 189° South 360 414 45,000  Level Washington Center
01:08PM 37.2306 -80.0031 186° South 365 420 45,000  Level Washington Center
01:09PM 37.1319 -80.0181 187° South 370 426 45,000  Level Washington Center
01:10PM 36.9506 -80.0442 187° South 369 425 45,000  Level Atlanta Center
01:11PM 36.8633 -80.0564 186° South 369 425 45,000  Level Atlanta Center
01:12PM 36.7617 -80.0717 187° South 369 425 45,000  Level Atlanta Center
01:13PM 36.6600 -80.0872 187° South 369 425 45,000  Level Atlanta Center
01:14PM 36.5519 -80.1028 187° South 369 425 45,000  Level Atlanta Center
01:15PM 36.4503 -80.1181 187° South 369 425 45,000  Level Atlanta Center
01:16PM 36.3486 -80.1336 187° South 369 425 45,000  Level Atlanta Center
01:17PM 36.2489 -80.1461 186° South 369 425 45,000  Level Atlanta Center
01:18PM 36.1556 -80.1608 187° South 369 425 45,000  Level Atlanta Center
01:19PM 36.0539 -80.1758 187° South 369 425 45,000  Level Atlanta Center
01:20PM 35.9564 -80.1933 188° South 369 425 45,000  Level Atlanta Center
01:21PM 35.8492 -80.2344 197° South 369 425 45,000  Level Atlanta Center
01:22PM 35.7500 -80.2672 195° South 374 430 45,000  Level Atlanta Center
01:23PM 35.6550 -80.3022 197° South 360 414 45,000  Level Atlanta Center
01:24PM 35.5561 -80.3397 197° South 366 421 45,000  Level Atlanta Center
01:25PM 35.4592 -80.3722 195° South 366 421 45,000  Level Atlanta Center
01:26PM 35.3639 -80.3994 193° South 366 421 45,000  Level Atlanta Center
01:27PM 35.2667 -80.4267 193° South 361 415 45,000  Level Atlanta Center
01:30PM 35.0603 -80.4581 187° South 359 413 45,000  Level Jacksonville Center
01:31PM 34.9586 -80.4736 187° South 370 426 45,000  Level Jacksonville Center
01:32PM 34.8564 -80.4842 185° South 370 426 45,000  Level Jacksonville Center
01:33PM 34.7567 -80.4994 187° South 358 412 45,000  Level Jacksonville Center
01:34PM 34.6547 -80.5125 186° South 353 406 45,000  Level Jacksonville Center
01:35PM 34.5528 -80.5256 186° South 358 412 45,000  Level Jacksonville Center
01:36PM 34.4508 -80.5358 185° South 368 423 45,000  Level Jacksonville Center
01:37PM 34.3508 -80.5486 186° South 368 423 45,000  Level Jacksonville Center
01:38PM 34.2489 -80.5614 186° South 368 423 45,000  Level Jacksonville Center
01:39PM 34.1469 -80.5717 185° South 368 423 45,000  Level Jacksonville Center
01:40PM 34.0469 -80.5867 187° South 368 423 45,000  Level Jacksonville Center
01:41PM 33.9450 -80.5969 185° South 368 423 45,000  Level Jacksonville Center
01:42PM 33.8408 -80.6097 186° South 368 423 45,000  Level Jacksonville Center
01:43PM 33.7389 -80.6222 186° South 368 423 45,000  Level Jacksonville Center
01:44PM 33.6367 -80.6350 186° South 368 423 45,000  Level Jacksonville Center
01:45PM 33.5325 -80.6475 186° South 368 423 45,000  Level Jacksonville Center
01:46PM 33.4286 -80.6603 186° South 373 429 45,000  Level Jacksonville Center
01:47PM 33.3244 -80.6728 186° South 373 429 45,000  Level Jacksonville Center
01:48PM 33.2181 -80.6853 186° South 373 429 45,000  Level Jacksonville Center
01:49PM 33.1139 -80.6978 186° South 378 435 45,000  Level Jacksonville Center
01:50PM 33.0078 -80.7078 185° South 383 441 45,000  Level Jacksonville Center
01:51PM 32.9036 -80.7203 186° South 383 441 45,000  Level Jacksonville Center
01:52PM 32.7994 -80.7303 185° South 383 441 45,000  Level Jacksonville Center
01:53PM 32.6931 -80.7425 186° South 383 441 45,000  Level Jacksonville Center
01:54PM 32.5889 -80.7550 186° South 371 427 45,000  Level Jacksonville Center
01:55PM 32.4847 -80.7647 185° South 379 436 45,000  Level Jacksonville Center
01:56PM 32.3847 -80.7694 182° South 385 443 45,000  Level Jacksonville Center
01:57PM 32.2886 -80.7692 180° South 384 442 45,000  Level Jacksonville Center
01:58PM 32.1694 -80.7622 177° South 392 451 45,000  Level Jacksonville Center
01:59PM 32.0714 -80.7597 179° South 387 445 45,000  Level Jacksonville Center
02:00PM 31.9522 -80.7575 179° South 387 445 45,000  Level Jacksonville Center
02:01PM 31.8436 -80.7550 179° South 387 445 45,000  Level Jacksonville Center
02:02PM 31.7475 -80.7525 179° South 381 438 45,000  Level Jacksonville Center
02:03PM 31.6286 -80.7528 180° South 389 448 45,000  Level Jacksonville Center
02:04PM 31.5306 -80.7500 179° South 389 448 45,000  Level Jacksonville Center
02:05PM 31.4239 -80.7453 178° South 389 448 45,000  Level Jacksonville Center
02:06PM 31.3172 -80.7428 179° South 383 441 45,000  Level Jacksonville Center
02:07PM 31.2067 -80.7431 180° South 383 441 45,000  Level Jacksonville Center
02:08PM 31.0958 -80.7358 177° South 388 447 45,000  Level Jacksonville Center
02:09PM 30.9917 -80.7358 180° South 388 447 45,000  Level Jacksonville Center
02:10PM 30.8850 -80.7308 178° South 383 441 45,000  Level Jacksonville Center
02:11PM 30.7764 -80.7311 180° South 383 441 45,000  Level Jacksonville Center
02:12PM 30.6656 -80.7261 178° South 388 447 45,000  Level Jacksonville Center
02:13PM 30.5569 -80.7239 179° South 388 447 45,000 -60 Level Jacksonville Center
02:14PM 30.4483 -80.7214 179° South 388 447 44,900 -540 Descending Jacksonville Center
02:15PM 30.3378 -80.7192 179° South 388 447 44,000 -960 Descending Jacksonville Center
02:16PM 30.2269 -80.7144 178° South 393 452 43,000 -960 Descending Jacksonville Center
02:17PM 30.1122 -80.7147 180° South 406 467 42,100 -900 Descending Jacksonville Center
02:18PM 29.9994 -80.7125 179° South 406 467 41,200 -960 Descending Jacksonville Center
02:19PM 29.8844 -80.7078 178° South 406 467 40,200 -1,020 Descending Jacksonville Center
02:20PM 29.7656 -80.7033 178° South 418 481 39,200 -1,020 Descending Jacksonville Center
02:21PM 29.6381 -80.7039 180° South 418 481 38,200 -1,020 Descending Jacksonville Center
02:22PM 29.5211 -80.6992 178° South 418 481 37,200 -600 Descending Jacksonville Center
02:25PM 29.1819 -80.6925 179° South 406 467 36,000 -300 Descending Miami Center
02:26PM 29.0808 -80.6583 164° South 365 420 36,000  Level Miami Center
02:27PM 28.9817 -80.6192 161° South 375 432 36,000  Level Miami Center
02:28PM 28.8847 -80.5803 161° South 368 423 36,000  Level Miami Center
02:29PM 28.7878 -80.5392 160° South 368 423 36,000 -840 Level Miami Center
02:30PM 28.6864 -80.5028 163° South 374 430 34,400 -1,800 Descending Miami Center
02:31PM 28.5994 -80.4692 161° South 375 432 32,400 -1,980 Descending Miami Center
02:32PM 28.5086 -80.4308 160° South 361 415 30,500 -1,980 Descending Miami Center
02:33PM 28.4117 -80.3922 161° South 347 399 28,500 -1,920 Descending Miami Center
02:34PM 28.3144 -80.3539 161° South 352 405 26,700 -1,800 Descending Miami Center
02:35PM 28.2153 -80.3156 161° South 366 421 25,000 -1,380 Descending Miami Center
02:36PM 28.1369 -80.2708 153° Southeast 366 421 24,000 -600 Descending Miami Center
02:37PM 28.0569 -80.2167 149° Southeast 345 397 23,900 -1,080 Descending Miami Center
02:38PM 27.9614 -80.1878 165° South 328 377 21,900 -1,860 Descending Miami Center
02:39PM 27.8697 -80.1806 176° South 328 377 20,200 -1,740 Descending Miami Center
02:40PM 27.7781 -80.1756 177° South 333 383 18,500 -1,560 Descending Miami Center
02:41PM 27.7031 -80.1664 174° South 308 354 17,100 -1,500 Descending Miami Center
02:42PM 27.6178 -80.1592 176° South 308 354 15,500 -1,800 Descending Miami Center
02:43PM 27.5239 -80.1517 176° South 308 354 13,600 -1,800 Descending Miami Center
02:44PM 27.4406 -80.1447 176° South 308 354 11,900 -1,740 Descending Miami Center
02:45PM 27.3550 -80.1375 176° South 308 354 10,200 -960 Descending Miami Center
02:46PM 27.2842 -80.1308 175° South 301 346 10,000 -600 Descending Miami Center
02:47PM 27.2011 -80.1192 173° South 280 322 9,000 -900 Descending Miami Center
02:48PM 27.1261 -80.1100 174° South 275 316 8,300 -780 Descending Miami Center
02:49PM 27.0511 -80.0986 172° South 275 316 7,500 -900 Descending Miami Center
02:50PM 26.9844 -80.0922 175° South 275 316 6,600 -900 Descending Miami Center
02:51PM 26.9117 -80.0831 174° South 270 311 5,700 -840 Descending Miami Center
02:52PM 26.8322 -80.0786 177° South 270 311 5,000 -540 Descending Miami Center
02:54PM 26.6477 -80.1098 191° South  Level FlightAware Approximate
02:56PM 26.5350 -80.1144 180° South 251 289 2,800  Level Miami Center
02:57PM 26.4617 -80.1219 185° South 227 261 2,000 -600 Descending Miami Center
02:58PM 26.4069 -80.1411 197° South 197 227 1,600 -600 Descending Miami Center
02:59PM 26.3672 -80.1469 187° South 142 163 900 -720 Descending Miami Center
03:00PM 26.3678 -80.1169 89° East 111 128 200 -720 Descending Miami Center
03:01PM 26.3785 -80.1077 180° South  Level Estimated
03:02PM 26.3667 -80.1000 90° East  Level FlightAware Approximate